Time;durP1;ratioP1;P1;durP2;ratioP2;P2;SDS_P1;SDS_P2;PMS_P1;PMS_P2;Temp;Humidity;BMP_temperature;BMP_pressure;BME280_temperature;BME280_humidity;BME280_pressure;Samples;Min_cycle;Max_cycle;Signal;HPM_P1;HPM_P2
2022/09/12 00:01:02;;;;;;;1.30;1.20;;;17.70;47.70;;;;;;5012811;28;20709;-71
2022/09/12 00:03:28;;;;;;;1.30;1.10;;;17.70;47.80;;;;;;4995402;28;20177;-71
2022/09/12 00:05:53;;;;;;;1.30;1.10;;;17.60;47.30;;;;;;4995284;28;20456;-72
2022/09/12 00:08:19;;;;;;;1.30;1.10;;;17.60;48.30;;;;;;5003000;28;20180;-71
2022/09/12 00:10:44;;;;;;;1.40;1.10;;;17.60;47.80;;;;;;5014017;28;20711;-71
2022/09/12 00:13:11;;;;;;;1.40;1.20;;;17.60;47.60;;;;;;5013900;28;20235;-71
2022/09/12 00:15:43;;;;;;;1.30;1.10;;;17.60;47.40;;;;;;5014780;28;20192;-71
2022/09/12 00:18:13;;;;;;;1.30;1.07;;;17.80;47.20;;;;;;5014063;28;20426;-71
2022/09/12 00:20:46;;;;;;;1.30;1.20;;;17.70;47.70;;;;;;5015053;28;20929;-71
2022/09/12 00:23:12;;;;;;;1.40;1.20;;;17.70;47.10;;;;;;5013996;28;20937;-72
2022/09/12 00:25:46;;;;;;;1.40;1.20;;;17.60;48.10;;;;;;5013965;28;20965;-71
2022/09/12 00:28:14;;;;;;;1.30;1.10;;;17.60;47.60;;;;;;5013834;28;20428;-71
2022/09/12 00:30:41;;;;;;;1.30;1.17;;;17.60;47.50;;;;;;5014774;28;20463;-71
2022/09/12 00:33:08;;;;;;;1.30;1.10;;;17.50;48.00;;;;;;5013440;28;20579;-71
2022/09/12 00:35:39;;;;;;;1.30;1.00;;;17.30;48.10;;;;;;5029251;28;20450;-71
2022/09/12 00:38:05;;;;;;;1.30;1.20;;;17.40;48.80;;;;;;5013806;28;20526;-71
2022/09/12 00:40:30;;;;;;;1.30;1.17;;;17.50;48.00;;;;;;5014398;28;20825;-71
2022/09/12 00:42:56;;;;;;;1.30;1.20;;;17.60;47.80;;;;;;5012460;28;20196;-71
2022/09/12 00:45:28;;;;;;;1.30;1.10;;;17.60;46.90;;;;;;5014056;28;20233;-71
2022/09/12 00:47:56;;;;;;;1.30;1.13;;;17.80;45.90;;;;;;5028331;28;20176;-71
2022/09/12 00:50:21;;;;;;;1.30;1.17;;;17.80;46.20;;;;;;5013250;28;20474;-71
2022/09/12 00:53:05;;;;;;;1.30;1.10;;;17.70;47.10;;;;;;5013729;28;20432;-71
2022/09/12 00:55:37;;;;;;;1.30;1.10;;;17.60;48.10;;;;;;5006895;28;20687;-71
2022/09/12 00:58:21;;;;;;;1.30;1.20;;;17.50;47.50;;;;;;5014013;28;20915;-72
2022/09/12 01:00:48;;;;;;;1.30;1.10;;;17.50;47.70;;;;;;5012839;28;20450;-71
2022/09/12 01:03:16;;;;;;;1.30;1.10;;;17.40;47.40;;;;;;5013711;28;20493;-71
2022/09/12 01:05:49;;;;;;;1.30;1.10;;;17.40;48.20;;;;;;5013808;28;20549;-71
2022/09/12 01:08:17;;;;;;;1.30;1.10;;;17.30;47.50;;;;;;5016904;28;20484;-72
2022/09/12 01:10:43;;;;;;;1.40;1.23;;;17.30;48.00;;;;;;5011604;28;20530;-74
2022/09/12 01:13:09;;;;;;;1.30;1.10;;;17.10;48.50;;;;;;5005527;28;20518;-71
2022/09/12 01:15:39;;;;;;;1.30;1.10;;;17.20;48.40;;;;;;5013673;28;20422;-71
2022/09/12 01:18:29;;;;;;;1.30;1.20;;;17.20;49.00;;;;;;5013055;28;20465;-71
2022/09/12 01:21:01;;;;;;;1.40;1.20;;;17.20;48.80;;;;;;5011695;28;20442;-72
2022/09/12 01:24:04;;;;;;;1.30;1.20;;;17.10;48.10;;;;;;5001156;28;20904;-71
2022/09/12 01:27:17;;;;;;;1.30;1.20;;;17.10;48.10;;;;;;5004989;28;20463;-70
2022/09/12 01:30:01;;;;;;;1.30;1.20;;;17.00;49.30;;;;;;5010737;28;20463;-71
2022/09/12 01:32:47;;;;;;;1.30;1.10;;;17.00;48.70;;;;;;5001423;28;20436;-71
2022/09/12 01:35:24;;;;;;;1.30;1.20;;;16.90;48.30;;;;;;5010807;28;20450;-70
2022/09/12 01:38:10;;;;;;;1.30;1.20;;;16.90;48.10;;;;;;5004906;28;20524;-70
2022/09/12 01:40:58;;;;;;;1.30;1.10;;;17.00;47.50;;;;;;5006455;28;20461;-72
2022/09/12 01:43:53;;;;;;;1.30;1.20;;;16.90;49.50;;;;;;5011839;28;20450;-70
2022/09/12 01:46:28;;;;;;;1.40;1.20;;;16.90;48.60;;;;;;5013378;28;20548;-71
2022/09/12 01:49:01;;;;;;;1.30;1.10;;;16.70;48.90;;;;;;5013363;28;20507;-71
2022/09/12 01:51:44;;;;;;;1.30;1.10;;;16.80;48.00;;;;;;5012698;28;20396;-70
2022/09/12 01:54:24;;;;;;;1.30;1.10;;;16.80;48.00;;;;;;5010432;28;20455;-71
2022/09/12 01:56:54;;;;;;;1.30;1.10;;;16.70;48.60;;;;;;5011071;28;20878;-70
2022/09/12 01:59:34;;;;;;;1.40;1.13;;;16.70;49.30;;;;;;5012402;28;21061;-70
2022/09/12 02:02:13;;;;;;;1.30;1.10;;;16.70;48.70;;;;;;5010942;28;20437;-70
2022/09/12 02:04:50;;;;;;;1.30;1.10;;;16.70;48.90;;;;;;5005312;28;20436;-71
2022/09/12 02:07:38;;;;;;;1.40;1.20;;;16.90;47.00;;;;;;5007114;28;20437;-71
2022/09/12 02:10:07;;;;;;;1.30;1.10;;;17.10;46.20;;;;;;5002767;28;20487;-70
2022/09/12 02:12:47;;;;;;;1.30;1.10;;;17.00;47.80;;;;;;5010103;28;20440;-72
2022/09/12 02:15:16;;;;;;;1.40;1.20;;;16.90;48.40;;;;;;5011267;28;20956;-70
2022/09/12 02:17:45;;;;;;;1.30;1.10;;;16.80;48.70;;;;;;5027427;28;20435;-72
2022/09/12 02:20:19;;;;;;;1.40;1.20;;;16.80;49.10;;;;;;5012594;28;20478;-70
2022/09/12 02:22:46;;;;;;;1.30;1.10;;;16.80;48.70;;;;;;5012077;28;20414;-70
2022/09/12 02:25:17;;;;;;;1.30;1.20;;;16.80;48.70;;;;;;5010820;28;20979;-70
2022/09/12 02:28:00;;;;;;;1.37;1.20;;;16.70;47.80;;;;;;5011743;28;20434;-71
2022/09/12 02:30:33;;;;;;;1.30;1.10;;;16.70;47.70;;;;;;4992951;28;20421;-72
2022/09/12 02:33:13;;;;;;;1.37;1.17;;;16.70;48.60;;;;;;5000262;28;20472;-71
2022/09/12 02:35:48;;;;;;;1.40;1.13;;;16.60;48.60;;;;;;5006130;28;20455;-71
2022/09/12 02:38:28;;;;;;;1.40;1.20;;;16.50;48.90;;;;;;5012096;28;20451;-72
2022/09/12 02:40:54;;;;;;;1.40;1.20;;;16.40;49.40;;;;;;5011693;28;20433;-72
2022/09/12 02:43:20;;;;;;;1.40;1.10;;;16.40;48.10;;;;;;5011936;28;20414;-70
2022/09/12 02:45:46;;;;;;;1.30;1.10;;;16.40;47.50;;;;;;5012169;28;20247;-70
2022/09/12 02:48:17;;;;;;;1.33;1.20;;;16.50;47.40;;;;;;5010750;28;20454;-71
2022/09/12 02:50:43;;;;;;;1.30;1.10;;;16.50;48.40;;;;;;5011289;28;20685;-71
2022/09/12 02:53:10;;;;;;;1.40;1.20;;;16.30;48.80;;;;;;5011657;28;20909;-70
2022/09/12 02:55:36;;;;;;;1.30;1.20;;;16.20;49.10;;;;;;5011583;28;20447;-70
2022/09/12 02:58:05;;;;;;;1.40;1.10;;;16.20;48.70;;;;;;5011601;28;21005;-70
2022/09/12 03:00:36;;;;;;;1.40;1.20;;;15.70;51.70;;;;;;5011869;28;20446;-71
2022/09/12 03:03:08;;;;;;;1.40;1.20;;;15.70;52.50;;;;;;5011577;28;20419;-70
2022/09/12 03:05:53;;;;;;;1.30;1.10;;;15.80;52.30;;;;;;5011157;28;20464;-71
2022/09/12 03:08:49;;;;;;;1.37;1.20;;;15.90;52.10;;;;;;5011630;28;20742;-70
2022/09/12 03:11:42;;;;;;;1.30;1.10;;;15.80;52.50;;;;;;5010250;28;20936;-71
2022/09/12 03:14:29;;;;;;;1.40;1.10;;;15.80;53.00;;;;;;5010574;28;20399;-70
2022/09/12 03:17:31;;;;;;;1.30;1.10;;;15.80;52.40;;;;;;5011628;28;20421;-70
2022/09/12 03:20:00;;;;;;;1.30;1.10;;;15.80;52.00;;;;;;5011297;28;20550;-70
2022/09/12 03:22:41;;;;;;;1.30;1.10;;;15.90;52.20;;;;;;5003236;28;20500;-70
2022/09/12 03:25:24;;;;;;;1.33;1.13;;;15.90;52.20;;;;;;5011364;28;20830;-70
2022/09/12 03:28:06;;;;;;;1.30;1.10;;;15.90;51.50;;;;;;5012187;28;20459;-70
2022/09/12 03:30:38;;;;;;;1.30;1.10;;;16.10;50.30;;;;;;5011264;28;21028;-70
2022/09/12 03:33:04;;;;;;;1.30;1.10;;;16.00;50.70;;;;;;5011105;28;20412;-71
2022/09/12 03:35:29;;;;;;;1.30;1.13;;;15.80;51.40;;;;;;5011178;28;21000;-70
2022/09/12 03:37:55;;;;;;;1.30;1.10;;;15.20;54.80;;;;;;5011205;28;20190;-70
2022/09/12 03:40:20;;;;;;;1.30;1.10;;;15.40;54.90;;;;;;5011178;28;20297;-70
2022/09/12 03:42:46;;;;;;;1.30;1.20;;;15.60;54.30;;;;;;5011035;28;20269;-71
2022/09/12 03:45:12;;;;;;;1.30;1.10;;;15.70;53.90;;;;;;5010849;28;20209;-72
2022/09/12 03:47:38;;;;;;;1.30;1.00;;;16.00;53.90;;;;;;5006006;28;20213;-70
2022/09/12 03:50:05;;;;;;;1.30;1.13;;;15.80;54.00;;;;;;5011163;28;20205;-70
2022/09/12 03:52:31;;;;;;;2.80;1.53;;;16.00;53.00;;;;;;5010962;28;20495;-71
2022/09/12 03:54:56;;;;;;;1.40;1.20;;;16.10;54.10;;;;;;5010532;28;20852;-71
2022/09/12 03:57:22;;;;;;;1.30;1.10;;;16.10;53.20;;;;;;5011537;28;20422;-70
2022/09/12 03:59:49;;;;;;;1.30;1.17;;;16.10;51.70;;;;;;5009732;28;20662;-70
2022/09/12 04:02:15;;;;;;;1.33;1.20;;;16.10;52.40;;;;;;5010569;28;20171;-70
2022/09/12 04:04:42;;;;;;;1.30;1.10;;;16.10;51.80;;;;;;5010942;28;20414;-70
2022/09/12 04:07:08;;;;;;;1.30;1.10;;;16.20;52.80;;;;;;5011069;28;20475;-71
2022/09/12 04:09:34;;;;;;;1.30;1.10;;;16.10;53.60;;;;;;5010533;28;20505;-70
2022/09/12 04:11:59;;;;;;;1.30;1.17;;;16.10;52.60;;;;;;5010435;28;20838;-70
2022/09/12 04:14:25;;;;;;;1.30;1.00;;;16.00;53.30;;;;;;5010868;28;20183;-71
2022/09/12 04:16:50;;;;;;;1.30;1.07;;;16.10;53.10;;;;;;5009995;28;20272;-72
2022/09/12 04:19:16;;;;;;;1.40;1.20;;;16.10;53.50;;;;;;5003947;28;20223;-70
2022/09/12 04:21:41;;;;;;;1.30;1.10;;;16.20;52.30;;;;;;5010663;28;20180;-71
2022/09/12 04:24:07;;;;;;;1.30;1.20;;;16.10;52.80;;;;;;5013911;28;20178;-70
2022/09/12 04:26:33;;;;;;;1.30;1.10;;;16.10;52.60;;;;;;5014123;28;20208;-70
2022/09/12 04:28:58;;;;;;;1.30;1.10;;;16.10;52.30;;;;;;5011340;28;20261;-70
2022/09/12 04:31:25;;;;;;;1.30;1.10;;;16.10;51.60;;;;;;5014105;28;20183;-70
2022/09/12 04:33:58;;;;;;;1.30;1.17;;;16.20;51.70;;;;;;5014506;28;20263;-70
2022/09/12 04:36:25;;;;;;;1.30;1.10;;;16.50;52.90;;;;;;5014216;28;20446;-70
2022/09/12 04:38:51;;;;;;;1.30;1.10;;;15.90;53.60;;;;;;5014413;28;20507;-69
2022/09/12 04:41:25;;;;;;;1.30;1.10;;;15.80;54.50;;;;;;5014182;28;20436;-70
2022/09/12 04:43:53;;;;;;;1.30;1.10;;;15.70;53.90;;;;;;5014152;28;20408;-71
2022/09/12 04:46:20;;;;;;;1.30;1.13;;;15.20;57.00;;;;;;5008612;28;20463;-70
2022/09/12 04:48:47;;;;;;;1.40;1.20;;;15.60;56.30;;;;;;5012617;28;20524;-70
2022/09/12 04:51:15;;;;;;;1.30;1.10;;;15.60;55.00;;;;;;5005077;28;20922;-69
2022/09/12 04:53:41;;;;;;;1.30;1.20;;;15.80;54.00;;;;;;5013925;28;20426;-70
2022/09/12 04:56:10;;;;;;;1.30;1.20;;;15.80;52.80;;;;;;5014195;28;20886;-70
2022/09/12 04:58:36;;;;;;;1.30;1.10;;;15.80;53.10;;;;;;5014167;28;20423;-71
2022/09/12 05:01:05;;;;;;;1.30;1.20;;;16.00;51.60;;;;;;5011896;28;20953;-69
2022/09/12 05:03:31;;;;;;;1.30;1.10;;;16.30;50.20;;;;;;5006368;28;20426;-70
2022/09/12 05:05:56;;;;;;;1.40;1.30;;;16.20;50.90;;;;;;5013228;28;20601;-71
2022/09/12 05:08:22;;;;;;;1.40;1.30;;;16.10;51.20;;;;;;5013771;28;20509;-70
2022/09/12 05:10:48;;;;;;;1.30;1.13;;;16.20;51.10;;;;;;5013125;28;20759;-72
2022/09/12 05:13:13;;;;;;;1.30;1.13;;;16.00;51.70;;;;;;5007420;28;20181;-72
2022/09/12 05:15:39;;;;;;;1.40;1.30;;;16.00;52.80;;;;;;5011990;28;20188;-69
2022/09/12 05:18:05;;;;;;;1.40;1.30;;;16.40;52.60;;;;;;5012567;28;20181;-70
2022/09/12 05:20:32;;;;;;;1.30;1.20;;;15.90;51.50;;;;;;5012903;28;20201;-70
2022/09/12 05:22:58;;;;;;;1.30;1.20;;;15.90;51.30;;;;;;5011294;28;20183;-71
2022/09/12 05:25:24;;;;;;;1.30;1.13;;;15.90;51.30;;;;;;5012163;28;20487;-70
2022/09/12 05:27:52;;;;;;;1.30;1.20;;;16.00;50.40;;;;;;5012928;28;20692;-70
2022/09/12 05:30:17;;;;;;;1.30;1.10;;;16.10;50.20;;;;;;5013302;28;20509;-70
2022/09/12 05:32:43;;;;;;;1.30;1.20;;;16.10;50.50;;;;;;5012575;28;20510;-70
2022/09/12 05:35:11;;;;;;;1.30;1.10;;;16.20;49.50;;;;;;5012923;28;20191;-70
2022/09/12 05:37:36;;;;;;;1.30;1.20;;;16.10;50.10;;;;;;5005203;28;20198;-72
2022/09/12 05:40:06;;;;;;;1.30;1.20;;;15.90;50.70;;;;;;5013347;28;20465;-69
2022/09/12 05:42:32;;;;;;;1.30;1.20;;;15.90;50.90;;;;;;5012827;28;20766;-70
2022/09/12 05:44:57;;;;;;;1.37;1.20;;;16.00;50.30;;;;;;5012110;28;20429;-70
2022/09/12 05:47:23;;;;;;;1.30;1.20;;;16.00;50.50;;;;;;5012430;28;20187;-70
2022/09/12 05:49:51;;;;;;;1.30;1.20;;;16.10;50.90;;;;;;5013215;28;20215;-72
2022/09/12 05:52:16;;;;;;;1.30;1.20;;;16.20;51.00;;;;;;5012569;28;20229;-69
2022/09/12 05:54:42;;;;;;;1.40;1.20;;;15.80;51.90;;;;;;5012184;28;20865;-69
2022/09/12 05:57:08;;;;;;;1.37;1.27;;;15.90;52.90;;;;;;5012406;28;20198;-70
2022/09/12 05:59:33;;;;;;;1.30;1.20;;;15.80;53.20;;;;;;5011717;28;20211;-70
2022/09/12 06:01:59;;;;;;;1.30;1.10;;;15.80;53.20;;;;;;5011379;28;20186;-71
2022/09/12 06:04:26;;;;;;;1.30;1.20;;;16.30;53.90;;;;;;5013129;28;20240;-70
2022/09/12 06:06:52;;;;;;;1.40;1.20;;;15.80;54.00;;;;;;5008750;28;20208;-70
2022/09/12 06:09:18;;;;;;;1.30;1.13;;;15.80;53.80;;;;;;5005544;28;20481;-69
2022/09/12 06:11:44;;;;;;;1.30;1.10;;;15.40;55.20;;;;;;5011634;28;20208;-73
2022/09/12 06:14:12;;;;;;;1.30;1.17;;;15.30;56.50;;;;;;5011992;28;20182;-70
2022/09/12 06:16:38;;;;;;;1.30;1.20;;;15.30;57.00;;;;;;5011955;28;20436;-70
2022/09/12 06:19:06;;;;;;;1.30;1.20;;;15.10;58.40;;;;;;5011895;28;20442;-70
2022/09/12 06:21:34;;;;;;;1.30;1.10;;;15.20;58.30;;;;;;5010420;28;20191;-72
2022/09/12 06:24:00;;;;;;;1.30;1.20;;;15.00;59.40;;;;;;5010326;28;20434;-71
2022/09/12 06:26:28;;;;;;;1.30;1.10;;;14.40;65.00;;;;;;5013433;28;20981;-70
2022/09/12 06:28:55;;;;;;;1.30;1.20;;;14.40;64.00;;;;;;5009436;28;20452;-70
2022/09/12 06:31:32;;;;;;;1.33;1.20;;;14.50;66.00;;;;;;5008126;28;20545;-69
2022/09/12 06:34:00;;;;;;;1.30;1.10;;;15.40;62.70;;;;;;5000396;28;20417;-69
2022/09/12 06:36:28;;;;;;;1.30;1.10;;;15.20;60.50;;;;;;4992608;28;20525;-71
2022/09/12 06:38:59;;;;;;;1.30;1.10;;;15.60;58.90;;;;;;5009022;28;20794;-70
2022/09/12 06:41:26;;;;;;;1.30;1.27;;;15.50;60.30;;;;;;5012035;28;20418;-69
2022/09/12 06:43:52;;;;;;;1.40;1.20;;;15.60;57.40;;;;;;5011655;28;20813;-70
2022/09/12 06:46:18;;;;;;;1.30;1.10;;;15.40;59.00;;;;;;5011208;28;20466;-69
2022/09/12 06:48:44;;;;;;;1.37;1.27;;;15.40;58.10;;;;;;5011908;28;20973;-69
2022/09/12 06:51:12;;;;;;;1.37;1.20;;;15.60;58.00;;;;;;5010463;28;20439;-69
2022/09/12 06:53:39;;;;;;;1.30;1.10;;;15.80;56.00;;;;;;5010414;28;20756;-68
2022/09/12 06:56:08;;;;;;;1.30;1.20;;;16.10;54.90;;;;;;5009007;28;20525;-70
2022/09/12 06:58:35;;;;;;;1.30;1.20;;;16.20;54.30;;;;;;5011632;28;20421;-69
2022/09/12 07:01:03;;;;;;;1.30;1.10;;;16.30;53.40;;;;;;5011307;28;20427;-70
2022/09/12 07:03:29;;;;;;;1.40;1.30;;;16.60;53.20;;;;;;5011608;28;20411;-70
2022/09/12 07:05:55;;;;;;;1.30;1.20;;;16.60;53.90;;;;;;5011888;28;20537;-70
2022/09/12 07:08:20;;;;;;;1.40;1.20;;;16.10;54.20;;;;;;5008505;28;20479;-68
2022/09/12 07:10:46;;;;;;;1.40;1.20;;;16.00;54.50;;;;;;4998682;28;20213;-68
2022/09/12 07:13:12;;;;;;;1.50;1.40;;;15.90;55.80;;;;;;5011540;28;20183;-69
2022/09/12 07:15:39;;;;;;;1.37;1.13;;;15.90;54.70;;;;;;5010280;28;20180;-68
2022/09/12 07:18:05;;;;;;;1.30;1.20;;;15.80;57.70;;;;;;5011642;28;20416;-68
2022/09/12 07:20:34;;;;;;;1.30;1.10;;;16.00;56.00;;;;;;5010267;28;20534;-68
2022/09/12 07:23:00;;;;;;;1.30;1.10;;;15.50;59.70;;;;;;5010876;28;20973;-68
2022/09/12 07:25:26;;;;;;;1.40;1.20;;;15.20;64.40;;;;;;5011493;28;20491;-68
2022/09/12 07:27:52;;;;;;;1.40;1.20;;;15.40;64.40;;;;;;5010562;28;20280;-70
2022/09/12 07:30:18;;;;;;;1.40;1.23;;;16.20;59.30;;;;;;5009452;28;20462;-68
2022/09/12 07:32:43;;;;;;;1.30;1.10;;;16.30;56.50;;;;;;5010932;28;20478;-69
2022/09/12 07:35:09;;;;;;;1.30;1.10;;;15.60;60.90;;;;;;5011530;28;20842;-68
2022/09/12 07:37:35;;;;;;;1.30;1.13;;;15.70;62.70;;;;;;5011582;28;20208;-68
2022/09/12 07:40:01;;;;;;;1.40;1.20;;;16.30;60.60;;;;;;5007005;28;20603;-69
2022/09/12 07:42:26;;;;;;;1.40;1.27;;;16.80;55.60;;;;;;5008175;28;20232;-69
2022/09/12 07:44:52;;;;;;;1.40;1.30;;;16.80;56.10;;;;;;5011355;28;20408;-70
2022/09/12 07:47:18;;;;;;;1.40;1.20;;;16.90;56.20;;;;;;4998683;28;20541;-69
2022/09/12 07:49:43;;;;;;;1.40;1.23;;;17.00;55.80;;;;;;4990948;28;20191;-68
2022/09/12 07:52:09;;;;;;;1.30;1.10;;;17.10;54.40;;;;;;5002670;28;20185;-69
2022/09/12 07:54:35;;;;;;;1.37;1.20;;;16.90;56.40;;;;;;5011367;28;20173;-69
2022/09/12 07:57:01;;;;;;;1.40;1.20;;;16.80;57.00;;;;;;5013069;28;20166;-69
2022/09/12 07:59:27;;;;;;;1.30;1.20;;;16.90;55.80;;;;;;5015165;28;20426;-69
2022/09/12 08:01:53;;;;;;;1.30;1.20;;;16.80;57.70;;;;;;5013127;28;20188;-71
2022/09/12 08:04:18;;;;;;;1.37;1.20;;;16.80;57.90;;;;;;4997263;28;20425;-68
2022/09/12 08:06:44;;;;;;;1.30;1.10;;;17.20;55.90;;;;;;4995730;28;20467;-69
2022/09/12 08:09:11;;;;;;;1.30;1.10;;;17.30;55.60;;;;;;5007589;28;20208;-69
2022/09/12 08:11:37;;;;;;;1.30;1.20;;;17.40;55.40;;;;;;5014965;28;20256;-69
2022/09/12 08:14:04;;;;;;;1.30;1.10;;;17.40;54.50;;;;;;5013005;28;21044;-69
2022/09/12 08:16:31;;;;;;;1.30;1.10;;;17.70;53.50;;;;;;5000065;28;20189;-69
2022/09/12 08:18:59;;;;;;;1.90;1.30;;;17.40;55.20;;;;;;4995199;28;20441;-69
2022/09/12 08:21:28;;;;;;;1.30;1.10;;;17.90;54.30;;;;;;4995116;28;20788;-69
2022/09/12 08:23:56;;;;;;;1.30;1.10;;;18.60;52.20;;;;;;4998225;28;20949;-69
2022/09/12 08:26:23;;;;;;;1.30;1.10;;;18.10;51.20;;;;;;5014550;28;20842;-68
2022/09/12 08:28:49;;;;;;;1.40;1.27;;;18.00;51.90;;;;;;5014474;28;20458;-69
2022/09/12 08:31:17;;;;;;;1.30;1.20;;;18.30;51.50;;;;;;5014644;28;20411;-69
2022/09/12 08:33:43;;;;;;;1.30;1.20;;;18.60;50.80;;;;;;5014431;28;20458;-69
2022/09/12 08:36:09;;;;;;;1.33;1.30;;;19.10;50.30;;;;;;5012841;28;20427;-70
2022/09/12 08:38:36;;;;;;;1.30;1.17;;;18.80;49.10;;;;;;4995049;28;21006;-68
2022/09/12 08:41:17;;;;;;;1.30;1.30;;;18.70;49.60;;;;;;5014176;28;20186;-73
2022/09/12 08:43:42;;;;;;;1.30;1.20;;;18.80;48.70;;;;;;5010764;28;20929;-69
2022/09/12 08:46:19;;;;;;;1.30;1.20;;;18.80;49.40;;;;;;5010246;28;20459;-69
2022/09/12 08:48:46;;;;;;;1.30;1.20;;;19.10;47.90;;;;;;5011165;28;20275;-69
2022/09/12 08:51:15;;;;;;;1.30;1.20;;;18.90;48.90;;;;;;5009642;28;20826;-69
2022/09/12 08:53:42;;;;;;;1.40;1.30;;;19.40;47.60;;;;;;5007839;28;20448;-69
2022/09/12 08:56:10;;;;;;;1.30;1.20;;;19.10;48.20;;;;;;5012424;28;20490;-70
2022/09/12 08:58:42;;;;;;;1.30;1.20;;;19.00;48.40;;;;;;5014104;28;20446;-70
2022/09/12 09:01:27;;;;;;;1.40;1.23;;;19.30;46.90;;;;;;5008214;28;20952;-69
2022/09/12 09:04:03;;;;;;;1.80;1.30;;;19.30;48.40;;;;;;5009754;28;20449;-69
2022/09/12 09:06:57;;;;;;;1.30;1.20;;;19.00;48.90;;;;;;5006911;28;20737;-68
2022/09/12 09:09:59;;;;;;;1.30;1.20;;;19.70;47.00;;;;;;5009951;28;20467;-69
2022/09/12 09:12:39;;;;;;;1.30;1.13;;;19.80;46.80;;;;;;5000912;28;20930;-69
2022/09/12 09:15:22;;;;;;;1.30;1.20;;;19.60;47.60;;;;;;5006783;28;20520;-69
2022/09/12 09:18:21;;;;;;;1.30;1.20;;;19.40;48.20;;;;;;5025991;28;20436;-69
2022/09/12 09:21:02;;;;;;;1.30;1.27;;;19.80;47.50;;;;;;5007505;28;20853;-70
2022/09/12 09:23:32;;;;;;;1.30;1.17;;;20.10;46.40;;;;;;5007752;28;20826;-69
2022/09/12 09:26:10;;;;;;;1.30;1.20;;;20.60;46.10;;;;;;5005304;28;20467;-69
2022/09/12 09:28:45;;;;;;;1.37;1.27;;;21.20;42.80;;;;;;5006751;28;21944;-70
2022/09/12 09:31:19;;;;;;;1.30;1.20;;;20.80;43.70;;;;;;5009526;28;20517;-69
2022/09/12 09:33:50;;;;;;;1.30;1.30;;;21.20;45.50;;;;;;5008969;28;20538;-70
2022/09/12 09:36:33;;;;;;;1.30;1.20;;;21.70;41.60;;;;;;5004059;28;20439;-69
2022/09/12 09:39:10;;;;;;;1.30;1.20;;;21.40;42.90;;;;;;5004897;28;20452;-70
2022/09/12 09:41:51;;;;;;;1.30;1.20;;;21.90;41.50;;;;;;5006069;28;20941;-69
2022/09/12 09:44:17;;;;;;;1.30;1.20;;;21.50;41.40;;;;;;5004636;28;20430;-69
2022/09/12 09:46:42;;;;;;;1.30;1.27;;;21.40;41.70;;;;;;5013223;28;20490;-69
2022/09/12 09:49:11;;;;;;;1.30;1.30;;;21.60;40.60;;;;;;5008756;28;20495;-69
2022/09/12 09:51:39;;;;;;;1.30;1.23;;;22.30;40.40;;;;;;5006871;28;20226;-69
2022/09/12 09:54:24;;;;;;;1.30;1.20;;;22.90;38.80;;;;;;5012472;28;20502;-70
2022/09/12 09:56:50;;;;;;;1.30;1.20;;;23.00;36.90;;;;;;5013136;28;20792;-70
2022/09/12 09:59:15;;;;;;;1.30;1.20;;;22.40;39.50;;;;;;5012203;28;20444;-71
2022/09/12 10:01:53;;;;;;;1.30;1.20;;;21.80;39.70;;;;;;5012825;28;20546;-69
2022/09/12 10:04:31;;;;;;;1.30;1.20;;;21.80;40.30;;;;;;5012551;28;20239;-69
2022/09/12 10:06:59;;;;;;;1.30;1.30;;;22.70;39.50;;;;;;5012970;28;20465;-71
2022/09/12 10:09:33;;;;;;;1.30;1.20;;;23.40;36.70;;;;;;5012579;28;20484;-72
2022/09/12 10:12:04;;;;;;;1.30;1.20;;;23.20;35.10;;;;;;5011830;28;20482;-69
2022/09/12 10:14:39;;;;;;;1.30;1.20;;;23.30;35.50;;;;;;5012670;28;20496;-71
2022/09/12 10:17:27;;;;;;;1.30;1.17;;;23.50;35.10;;;;;;5012647;28;20413;-70
2022/09/12 10:19:54;;;;;;;1.30;1.10;;;23.60;34.50;;;;;;5012596;28;20472;-69
2022/09/12 10:22:23;;;;;;;1.30;1.20;;;23.40;35.90;;;;;;5010666;28;20428;-69
2022/09/12 10:24:58;;;;;;;1.30;1.10;;;22.90;31.90;;;;;;5012350;28;20450;-71
2022/09/12 10:27:29;;;;;;;1.30;1.20;;;23.00;33.80;;;;;;5012450;28;20427;-69
2022/09/12 10:30:06;;;;;;;1.30;1.10;;;23.20;34.70;;;;;;5012504;28;20435;-70
2022/09/12 10:32:44;;;;;;;1.30;1.20;;;23.70;33.80;;;;;;5011404;28;20525;-71
2022/09/12 10:35:32;;;;;;;1.30;1.10;;;23.70;34.90;;;;;;4993307;28;20424;-71
2022/09/12 10:38:01;;;;;;;1.30;1.13;;;24.70;32.20;;;;;;4992883;28;20490;-70
2022/09/12 10:40:30;;;;;;;1.30;1.20;;;25.10;32.50;;;;;;4992841;28;20443;-70
2022/09/12 10:42:58;;;;;;;1.30;1.10;;;25.60;30.20;;;;;;4992265;28;20514;-70
2022/09/12 10:45:27;;;;;;;1.30;1.20;;;26.00;27.80;;;;;;4995385;28;20471;-70
2022/09/12 10:47:57;;;;;;;1.30;1.20;;;26.00;28.70;;;;;;5012200;28;20495;-71
2022/09/12 10:50:38;;;;;;;1.30;1.20;;;26.10;29.20;;;;;;5011867;28;20432;-70
2022/09/12 10:53:27;;;;;;;1.30;1.10;;;26.00;28.00;;;;;;5011738;28;20459;-70
2022/09/12 10:56:22;;;;;;;1.30;1.10;;;25.80;28.30;;;;;;5011212;28;20424;-70
2022/09/12 10:58:54;;;;;;;1.30;1.10;;;26.70;28.80;;;;;;5012061;28;20439;-70
2022/09/12 11:01:28;;;;;;;1.30;1.00;;;27.40;26.40;;;;;;5010385;28;20809;-70
2022/09/12 11:04:05;;;;;;;1.30;1.10;;;26.70;25.50;;;;;;5011567;28;20418;-71
2022/09/12 11:06:57;;;;;;;1.30;1.07;;;26.10;26.50;;;;;;5010241;28;20447;-70
2022/09/12 11:09:34;;;;;;;1.30;1.10;;;26.80;27.20;;;;;;5011841;28;20463;-70
2022/09/12 11:12:12;;;;;;;1.30;1.00;;;28.00;26.80;;;;;;5010310;28;20471;-70
2022/09/12 11:14:46;;;;;;;1.30;1.00;;;28.70;25.70;;;;;;5005782;28;20439;-72
2022/09/12 11:17:30;;;;;;;1.27;1.00;;;28.70;23.30;;;;;;5010163;28;20443;-71
2022/09/12 11:20:37;;;;;;;1.20;1.00;;;29.20;23.60;;;;;;5010959;28;20482;-70
2022/09/12 11:23:17;;;;;;;1.30;1.10;;;29.10;22.70;;;;;;5004816;28;20439;-70
2022/09/12 11:26:14;;;;;;;1.27;1.00;;;28.60;22.30;;;;;;5019121;28;20474;-70
2022/09/12 11:28:49;;;;;;;1.27;1.00;;;29.10;23.00;;;;;;5003992;28;20439;-70
2022/09/12 11:31:33;;;;;;;1.63;1.10;;;29.80;23.50;;;;;;5009891;28;20942;-71
2022/09/12 11:34:04;;;;;;;1.20;0.97;;;29.50;22.40;;;;;;5015712;28;20443;-70
2022/09/12 11:36:56;;;;;;;1.30;1.10;;;29.20;23.10;;;;;;5006978;28;20939;-71
2022/09/12 11:39:29;;;;;;;1.30;1.00;;;29.10;21.40;;;;;;5017151;28;20458;-71
2022/09/12 11:41:59;;;;;;;1.30;1.00;;;29.60;21.30;;;;;;5017707;28;20396;-71
2022/09/12 11:44:36;;;;;;;1.30;1.00;;;31.00;19.40;;;;;;5017952;28;20810;-73
2022/09/12 11:47:09;;;;;;;1.30;1.00;;;32.20;19.20;;;;;;5017897;28;20470;-71
2022/09/12 11:49:49;;;;;;;1.23;1.00;;;31.60;17.00;;;;;;5016413;28;20451;-71
2022/09/12 11:52:21;;;;;;;1.20;0.90;;;32.00;18.20;;;;;;5016662;28;20505;-71
2022/09/12 11:54:58;;;;;;;1.30;0.97;;;30.70;18.40;;;;;;5017541;28;20450;-71
2022/09/12 11:57:24;;;;;;;1.30;1.00;;;30.70;18.30;;;;;;5017850;28;20517;-71
2022/09/12 12:00:13;;;;;;;1.20;0.90;;;31.80;19.50;;;;;;5017773;28;20946;-71
2022/09/12 12:03:16;;;;;;;1.20;1.00;;;33.50;14.70;;;;;;5016611;28;20258;-71
2022/09/12 12:05:58;;;;;;;1.20;1.00;;;34.00;14.00;;;;;;4998237;28;20493;-71
2022/09/12 12:08:26;;;;;;;1.20;0.90;;;32.90;14.30;;;;;;5011185;28;20495;-71
2022/09/12 12:11:02;;;;;;;1.20;0.90;;;33.30;15.40;;;;;;5015461;28;20475;-71
2022/09/12 12:13:34;;;;;;;1.20;0.80;;;33.40;12.60;;;;;;5016382;28;20942;-70
2022/09/12 12:16:35;;;;;;;1.20;0.90;;;33.00;13.10;;;;;;5012106;28;20502;-71
2022/09/12 12:19:07;;;;;;;1.20;0.90;;;34.20;12.70;;;;;;4967597;28;20462;-71
2022/09/12 12:21:48;;;;;;;1.20;0.90;;;34.80;11.60;;;;;;4967538;28;20577;-71
2022/09/12 12:24:21;;;;;;;1.20;0.97;;;34.70;11.50;;;;;;4975198;28;20858;-72
2022/09/12 12:26:51;;;;;;;1.20;0.90;;;34.10;13.00;;;;;;4976541;28;20473;-71
2022/09/12 12:29:16;;;;;;;1.20;0.90;;;34.50;11.70;;;;;;4974774;28;20524;-71
2022/09/12 12:32:03;;;;;;;1.20;0.90;;;34.70;12.90;;;;;;4975902;28;20493;-71
2022/09/12 12:34:31;;;;;;;1.20;0.90;;;34.20;10.80;;;;;;4969934;28;20198;-71
2022/09/12 12:36:58;;;;;;;1.20;0.90;;;33.80;14.40;;;;;;4968560;28;20449;-71
2022/09/12 12:39:33;;;;;;;1.20;0.90;;;33.00;13.10;;;;;;4969357;28;20927;-71
2022/09/12 12:41:59;;;;;;;1.20;0.90;;;32.40;13.20;;;;;;4967738;28;20489;-71
2022/09/12 12:44:43;;;;;;;1.20;0.90;;;32.50;12.80;;;;;;4958662;28;20950;-71
2022/09/12 12:47:46;;;;;;;1.20;1.00;;;32.60;12.80;;;;;;4963369;28;20509;-71
2022/09/12 12:50:15;;;;;;;1.20;1.00;;;33.00;12.80;;;;;;4964653;28;20657;-73
2022/09/12 12:52:54;;;;;;;1.20;0.90;;;33.30;10.80;;;;;;4979711;28;20595;-71
2022/09/12 12:55:30;;;;;;;1.20;1.00;;;33.10;10.80;;;;;;5004453;28;20439;-72
2022/09/12 12:57:57;;;;;;;1.20;0.90;;;32.50;12.10;;;;;;5007125;28;20440;-72
2022/09/12 13:00:23;;;;;;;1.20;0.90;;;32.90;13.70;;;;;;5012529;28;20448;-73
2022/09/12 13:03:11;;;;;;;1.20;0.90;;;32.80;13.70;;;;;;5013103;28;20510;-72
2022/09/12 13:06:02;;;;;;;1.20;0.90;;;31.60;12.70;;;;;;5009615;28;20217;-72
2022/09/12 13:08:37;;;;;;;1.20;0.90;;;31.60;15.40;;;;;;5009290;28;20436;-72
2022/09/12 13:11:13;;;;;;;1.20;0.90;;;32.90;13.00;;;;;;5013883;28;20423;-73
2022/09/12 13:14:03;;;;;;;1.20;0.90;;;33.80;11.40;;;;;;5013380;28;20493;-73